createdAt,value
2022-08-22T00:00:59.188Z,99581.06
2022-08-22T00:02:44.825Z,99684.16
2022-08-22T00:02:48.497Z,99638.31
2022-08-22T00:02:49.934Z,99613.88
2022-08-22T00:03:12.378Z,99663.03
2022-08-22T00:04:14.497Z,99574.13
2022-08-22T00:07:29.867Z,99575.94
2022-08-22T00:10:40.616Z,99587.34
2022-08-22T00:13:42.477Z,99579.16
2022-08-22T00:17:27.390Z,99581.06
2022-08-22T00:20:44.573Z,99585.16
2022-08-22T00:24:24.005Z,99575.38
2022-08-22T00:27:34.196Z,99585.25
2022-08-22T00:30:48.778Z,99578.81
2022-08-22T00:33:56.700Z,99584.16
2022-08-22T00:37:19.533Z,99576.94
2022-08-22T00:40:21.834Z,99575.13
2022-08-22T00:43:42.172Z,99574.00
2022-08-22T00:47:25.300Z,99571.41
2022-08-22T00:50:58.613Z,99571.53
2022-08-22T00:54:17.636Z,99575.00
2022-08-22T00:57:47.457Z,99575.72
2022-08-22T01:00:54.795Z,99580.09
2022-08-22T01:04:14.931Z,99589.03
2022-08-22T01:07:48.528Z,99576.94
2022-08-22T01:11:10.879Z,99572.69
2022-08-22T01:14:21.499Z,99578.00
2022-08-22T01:17:58.865Z,99576.19
2022-08-22T01:21:41.735Z,99575.53
2022-08-22T01:25:25.985Z,99586.03
2022-08-22T01:29:00.305Z,99583.31
2022-08-22T01:32:24.571Z,99579.06
2022-08-22T01:35:44.669Z,99587.78
2022-08-22T01:39:05.131Z,99583.34
2022-08-22T01:42:09.438Z,99578.09
2022-08-22T01:45:32.689Z,99578.97
2022-08-22T01:48:38.945Z,99579.22
2022-08-22T01:52:06.518Z,99577.56
2022-08-22T01:55:08.076Z,99576.56
2022-08-22T01:58:24.664Z,99580.25
2022-08-22T02:01:31.726Z,99585.31
2022-08-22T02:04:39.576Z,99581.78
2022-08-22T02:08:00.729Z,99576.41
2022-08-22T02:11:12.920Z,99569.06
2022-08-22T02:14:20.186Z,99573.66
2022-08-22T02:17:54.606Z,99578.22
2022-08-22T02:21:33.679Z,99573.94
2022-08-22T02:25:20.430Z,99577.50
2022-08-22T02:28:56.532Z,99573.94
2022-08-22T02:33:00.548Z,99578.47
2022-08-22T02:36:22.834Z,99577.56
2022-08-22T02:39:48.395Z,99579.19
2022-08-22T02:43:15.136Z,99576.63
2022-08-22T02:46:32.269Z,99573.94
2022-08-22T02:49:52.682Z,99574.03
2022-08-22T02:53:17.380Z,99569.59
2022-08-22T02:56:25.102Z,99569.78
2022-08-22T02:59:34.321Z,99577.97
2022-08-22T03:02:39.812Z,99570.97
2022-08-22T03:05:47.066Z,99589.63
2022-08-22T03:09:07.316Z,99586.62
2022-08-22T03:12:21.158Z,99592.66
2022-08-22T03:15:25.575Z,99595.16
2022-08-22T03:18:57.870Z,99594.16
2022-08-22T03:22:31.362Z,99601.53
2022-08-22T03:25:47.720Z,99607.63
2022-08-22T03:28:59.970Z,99606.03
2022-08-22T03:32:19.711Z,99608.81
2022-08-22T03:35:32.443Z,99608.88
2022-08-22T03:38:34.027Z,99603.47
2022-08-22T03:42:03.134Z,99608.78
2022-08-22T03:45:48.687Z,99607.94
2022-08-22T03:49:12.171Z,99606.34
2022-08-22T03:53:01.586Z,99607.69
2022-08-22T03:56:15.026Z,99608.41
2022-08-22T03:59:25.650Z,99606.69
2022-08-22T04:02:47.447Z,99609.22
2022-08-22T04:05:58.482Z,99609.22
2022-08-22T04:09:18.214Z,99611.75
2022-08-22T04:12:32.499Z,99597.94
2022-08-22T04:16:02.836Z,99610.38
2022-08-22T04:19:28.258Z,99612.00
2022-08-22T04:23:27.001Z,99603.84
2022-08-22T04:26:45.441Z,99603.22
2022-08-22T04:30:09.419Z,99608.84
2022-08-22T04:33:22.425Z,99608.62
2022-08-22T04:36:35.016Z,99615.91
2022-08-22T04:39:48.238Z,99620.41
2022-08-22T04:42:59.536Z,99622.81
2022-08-22T04:46:36.631Z,99620.84
2022-08-22T04:50:04.553Z,99638.72
2022-08-22T04:53:09.039Z,99633.34
2022-08-22T04:56:54.746Z,99624.19
2022-08-22T05:00:03.593Z,99619.72
2022-08-22T05:03:14.498Z,99624.31
2022-08-22T05:06:19.177Z,99624.09
2022-08-22T05:09:27.377Z,99630.31
2022-08-22T05:12:34.126Z,99639.03
2022-08-22T05:15:38.244Z,99630.75
2022-08-22T05:18:47.895Z,99636.94
2022-08-22T05:21:51.918Z,99638.75
2022-08-22T05:24:59.824Z,99646.03
2022-08-22T05:28:17.939Z,99657.72
2022-08-22T05:31:26.441Z,99658.53
2022-08-22T05:34:34.505Z,99665.69
2022-08-22T05:37:44.918Z,99663.22
2022-08-22T05:40:54.735Z,99664.66
2022-08-22T05:43:56.661Z,99668.22
2022-08-22T05:47:05.090Z,99667.81
2022-08-22T05:50:08.787Z,99652.56
2022-08-22T05:53:31.438Z,99655.25
2022-08-22T05:56:42.175Z,99661.47
2022-08-22T05:59:48.493Z,99662.22
2022-08-22T06:03:15.113Z,99674.50
2022-08-22T06:06:19.713Z,99681.94
2022-08-22T06:09:42.707Z,99680.06
2022-08-22T06:13:02.417Z,99667.75
2022-08-22T06:16:35.008Z,99678.41
2022-08-22T06:19:43.433Z,99678.56
2022-08-22T06:22:54.782Z,99670.38
2022-08-22T06:26:00.313Z,99683.22
2022-08-22T06:29:03.483Z,99684.75
2022-08-22T06:32:16.130Z,99679.78
2022-08-22T06:35:50.716Z,99684.75
2022-08-22T06:38:54.517Z,99686.34
2022-08-22T06:42:16.701Z,99688.47
2022-08-22T06:45:30.166Z,99687.13
2022-08-22T06:48:34.418Z,99691.53
2022-08-22T06:51:38.768Z,99692.84
2022-08-22T06:54:46.961Z,99695.22
2022-08-22T06:57:58.712Z,99698.31
2022-08-22T07:01:11.692Z,99696.59
2022-08-22T07:04:14.536Z,99704.84
2022-08-22T07:07:19.611Z,99697.50
2022-08-22T07:10:24.112Z,99700.94
2022-08-22T07:13:28.347Z,99702.44
2022-08-22T07:16:34.985Z,99710.38
2022-08-22T07:19:40.261Z,99702.19
2022-08-22T07:22:58.316Z,99706.69
2022-08-22T07:26:20.444Z,99710.44
2022-08-22T07:29:30.888Z,99706.34
2022-08-22T07:33:26.105Z,99713.63
2022-08-22T07:36:44.903Z,99717.25
2022-08-22T07:40:09.370Z,99717.09
2022-08-22T07:43:28.604Z,99721.59
2022-08-22T07:46:38.097Z,99721.09
2022-08-22T07:49:51.422Z,99723.59
2022-08-22T07:52:57.300Z,99724.97
2022-08-22T07:56:00.517Z,99723.94
2022-08-22T07:59:17.053Z,99725.28
2022-08-22T08:02:20.449Z,99715.94
2022-08-22T08:05:30.547Z,99722.56
2022-08-22T08:08:39.086Z,99715.31
2022-08-22T08:11:43.611Z,99709.84
2022-08-22T08:14:50.304Z,99716.56
2022-08-22T08:18:01.973Z,99713.66
2022-08-22T08:21:07.561Z,99708.00
2022-08-22T08:24:16.096Z,99704.16
2022-08-22T08:27:41.046Z,99703.13
2022-08-22T08:31:28.235Z,99701.34
2022-08-22T08:34:35.522Z,99708.12
2022-08-22T08:37:49.479Z,99713.06
2022-08-22T08:41:27.877Z,99716.09
2022-08-22T08:44:47.196Z,99729.59
2022-08-22T08:47:54.856Z,99738.62
2022-08-22T08:51:10.263Z,99731.72
2022-08-22T08:54:47.212Z,99733.78
2022-08-22T08:58:17.768Z,99735.84
2022-08-22T09:01:44.570Z,99733.50
2022-08-22T09:05:07.996Z,99735.94
2022-08-22T09:08:30.749Z,99740.00
2022-08-22T09:12:15.563Z,99735.97
2022-08-22T09:15:23.117Z,99746.12
2022-08-22T09:18:46.804Z,99741.69
2022-08-22T09:21:55.602Z,99738.44
2022-08-22T09:25:23.516Z,99744.00
2022-08-22T09:28:53.428Z,99751.69
2022-08-22T09:32:19.156Z,99749.44
2022-08-22T09:35:31.103Z,99733.03
2022-08-22T09:39:16.561Z,99745.53
2022-08-22T09:42:31.505Z,99738.25
2022-08-22T09:45:39.132Z,99741.41
2022-08-22T09:48:57.967Z,99738.41
2022-08-22T09:52:36.674Z,99745.28
2022-08-22T09:55:59.242Z,99741.03
2022-08-22T09:59:25.355Z,99734.75
2022-08-22T10:02:30.726Z,99735.88
2022-08-22T10:05:59.111Z,99736.69
2022-08-22T10:09:26.406Z,99735.47
2022-08-22T10:13:15.148Z,99731.28
2022-08-22T10:16:41.758Z,99735.00
2022-08-22T10:19:52.364Z,99730.75
2022-08-22T10:23:21.064Z,99735.34
2022-08-22T10:26:38.573Z,99741.25
2022-08-22T10:30:18.559Z,99733.66
2022-08-22T10:33:33.869Z,99734.47
2022-08-22T10:36:40.505Z,99725.78
2022-08-22T10:39:55.654Z,99728.47
2022-08-22T10:43:37.793Z,99729.59
2022-08-22T10:46:46.189Z,99731.28
2022-08-22T10:49:54.830Z,99735.66
2022-08-22T10:53:29.737Z,99731.50
2022-08-22T10:57:24.199Z,99732.16
2022-08-22T11:00:46.119Z,99733.13
2022-08-22T11:04:10.014Z,99733.59
2022-08-22T11:07:29.734Z,99735.34
2022-08-22T11:10:49.052Z,99735.06
2022-08-22T11:14:18.846Z,99726.75
2022-08-22T11:17:54.405Z,99726.84
2022-08-22T11:21:04.826Z,99722.12
2022-08-22T11:24:46.527Z,99722.31
2022-08-22T11:28:36.767Z,99720.00
2022-08-22T11:31:51.455Z,99722.16
2022-08-22T11:38:59.089Z,99712.63
2022-08-22T11:42:06.041Z,99710.66
2022-08-22T11:45:11.660Z,99707.06
2022-08-22T11:48:39.742Z,99708.91
2022-08-22T11:52:08.586Z,99704.69
2022-08-22T11:55:34.397Z,99702.75
2022-08-22T11:58:54.994Z,99707.16
2022-08-22T12:02:04.242Z,99703.56
2022-08-22T12:05:20.085Z,99701.66
2022-08-22T12:08:34.142Z,99705.00
2022-08-22T12:12:11.773Z,99703.47
2022-08-22T12:15:33.298Z,99703.37
2022-08-22T12:19:06.454Z,99692.38
2022-08-22T12:22:34.983Z,99681.84
2022-08-22T12:26:10.920Z,99684.25
2022-08-22T12:29:19.066Z,99689.69
2022-08-22T12:32:35.577Z,99689.28
2022-08-22T12:35:51.265Z,99686.75
2022-08-22T12:39:24.401Z,99691.62
2022-08-22T12:42:34.849Z,99692.62
2022-08-22T12:45:47.924Z,99704.22
2022-08-22T12:49:14.539Z,99693.00
2022-08-22T12:53:04.011Z,99700.62
2022-08-22T12:56:14.548Z,99702.63
2022-08-22T12:59:25.179Z,99707.66
2022-08-22T13:02:35.102Z,99701.84
2022-08-22T13:05:40.706Z,99706.88
2022-08-22T13:08:46.122Z,99709.38
2022-08-22T13:11:52.539Z,99714.19
2022-08-22T13:15:00.204Z,99717.66
2022-08-22T13:18:28.373Z,99716.41
2022-08-22T13:21:36.330Z,99719.13
2022-08-22T13:24:51.749Z,99713.34
2022-08-22T13:28:01.300Z,99709.63
2022-08-22T13:31:05.206Z,99709.22
2022-08-22T13:34:32.085Z,99696.50
2022-08-22T13:37:44.386Z,99697.41
2022-08-22T13:40:49.574Z,99705.38
2022-08-22T13:44:13.634Z,99710.69
2022-08-22T13:47:19.549Z,99708.31
2022-08-22T13:50:26.005Z,99710.41
2022-08-22T13:53:41.571Z,99711.44
2022-08-22T13:56:54.773Z,99717.25
2022-08-22T14:00:12.391Z,99723.19
2022-08-22T14:03:48.459Z,99723.72
2022-08-22T14:07:02.082Z,99725.69
2022-08-22T14:10:15.313Z,99718.78
2022-08-22T14:13:32.434Z,99706.28
2022-08-22T14:16:47.748Z,99697.53
2022-08-22T14:20:01.737Z,99695.59
2022-08-22T14:23:09.352Z,99696.34
2022-08-22T14:29:59.399Z,99683.50
2022-08-22T14:33:22.024Z,99681.00
2022-08-22T14:36:47.324Z,99678.00
2022-08-22T14:39:57.149Z,99683.03
2022-08-22T14:43:08.022Z,99678.91
2022-08-22T14:46:18.374Z,99670.44
2022-08-22T14:49:20.870Z,99681.37
2022-08-22T14:52:40.555Z,99687.87
2022-08-22T14:55:53.867Z,99699.28
2022-08-22T14:59:04.664Z,99711.97
2022-08-22T15:02:15.974Z,99722.47
2022-08-22T15:05:21.456Z,99723.28
2022-08-22T15:08:27.706Z,99729.06
2022-08-22T15:11:32.237Z,99730.59
2022-08-22T15:14:37.132Z,99741.28
2022-08-22T15:17:45.990Z,99743.88
2022-08-22T15:21:03.230Z,99754.84
2022-08-22T15:24:13.702Z,99747.38
2022-08-22T15:27:19.727Z,99754.94
2022-08-22T15:30:44.532Z,99747.84
2022-08-22T15:33:47.567Z,99747.81
2022-08-22T15:37:28.103Z,99750.91
2022-08-22T15:40:36.190Z,99752.69
2022-08-22T15:43:49.273Z,99744.97
2022-08-22T15:47:23.941Z,99739.50
2022-08-22T15:50:58.485Z,99745.81
2022-08-22T15:54:02.630Z,99744.84
2022-08-22T15:57:30.235Z,99739.03
2022-08-22T16:00:45.296Z,99735.34
2022-08-22T16:04:07.429Z,99739.25
2022-08-22T16:07:40.236Z,99737.47
2022-08-22T16:10:46.332Z,99734.25
2022-08-22T16:14:21.416Z,99736.19
2022-08-22T16:17:29.458Z,99729.47
2022-08-22T16:20:36.958Z,99732.09
2022-08-22T16:23:54.166Z,99733.09
2022-08-22T16:26:56.927Z,99739.84
2022-08-22T16:30:05.924Z,99746.06
2022-08-22T16:33:17.853Z,99745.12
2022-08-22T16:36:51.062Z,99750.66
2022-08-22T16:40:13.063Z,99748.34
2022-08-22T16:43:19.616Z,99745.94
2022-08-22T16:46:34.597Z,99749.22
2022-08-22T16:49:50.637Z,99744.03
2022-08-22T16:52:58.633Z,99745.06
2022-08-22T16:56:09.209Z,99742.47
2022-08-22T16:59:37.278Z,99751.13
2022-08-22T17:02:53.241Z,99761.75
2022-08-22T17:06:13.010Z,99761.44
2022-08-22T17:09:52.200Z,99755.19
2022-08-22T17:13:12.928Z,99761.97
2022-08-22T17:16:26.863Z,99759.75
2022-08-22T17:19:39.445Z,99763.94
2022-08-22T17:23:07.127Z,99763.91
2022-08-22T17:26:20.304Z,99755.69
2022-08-22T17:29:49.199Z,99761.34
2022-08-22T17:33:15.380Z,99759.59
2022-08-22T17:36:32.304Z,99763.84
2022-08-22T17:40:02.240Z,99769.12
2022-08-22T17:43:03.834Z,99776.22
2022-08-22T17:46:22.105Z,99781.66
2022-08-22T17:49:49.191Z,99792.25
2022-08-22T17:52:58.920Z,99788.94
2022-08-22T17:56:12.266Z,99797.81
2022-08-22T17:59:21.104Z,99793.84
2022-08-22T18:02:40.718Z,99792.25
2022-08-22T18:05:53.786Z,99788.34
2022-08-22T18:09:18.041Z,99799.66
2022-08-22T18:12:22.971Z,99797.97
2022-08-22T18:15:35.032Z,99804.13
2022-08-22T18:19:17.256Z,99810.50
2022-08-22T18:22:31.762Z,99812.09
2022-08-22T18:25:44.903Z,99811.59
2022-08-22T18:28:55.235Z,99817.78
2022-08-22T18:31:57.298Z,99824.63
2022-08-22T18:35:18.149Z,99830.06
2022-08-22T18:38:56.623Z,99829.34
2022-08-22T18:42:34.024Z,99824.50
2022-08-22T18:45:48.222Z,99823.91
2022-08-22T18:49:14.172Z,99824.72
2022-08-22T18:52:14.259Z,99824.91
2022-08-22T18:55:49.780Z,99830.12
2022-08-22T18:59:17.399Z,99824.53
2022-08-22T19:02:37.913Z,99823.47
2022-08-22T19:06:04.706Z,99827.31
2022-08-22T19:09:20.302Z,99831.94
2022-08-22T19:12:42.139Z,99840.03
2022-08-22T19:16:03.111Z,99837.31
2022-08-22T19:19:17.388Z,99844.22
2022-08-22T19:22:19.776Z,99846.31
2022-08-22T19:25:27.717Z,99854.06
2022-08-22T19:28:37.032Z,99845.03
2022-08-22T19:31:41.573Z,99843.94
2022-08-22T19:34:47.754Z,99856.63
2022-08-22T19:37:58.819Z,99847.59
2022-08-22T19:41:02.142Z,99850.56
2022-08-22T19:44:04.751Z,99852.16
2022-08-22T19:47:18.828Z,99845.91
2022-08-22T19:50:21.904Z,99842.31
2022-08-22T19:53:42.739Z,99841.56
2022-08-22T19:56:48.829Z,99851.97
2022-08-22T20:00:08.339Z,99851.06
2022-08-22T20:03:17.774Z,99847.53
2022-08-22T20:06:46.477Z,99847.94
2022-08-22T20:10:27.019Z,99833.66
2022-08-22T20:13:35.961Z,99838.09
2022-08-22T20:17:16.572Z,99833.84
2022-08-22T20:20:24.053Z,99831.13
2022-08-22T20:23:38.547Z,99830.19
2022-08-22T20:27:10.129Z,99833.97
2022-08-22T20:30:31.693Z,99828.44
2022-08-22T20:33:39.189Z,99828.59
2022-08-22T20:36:55.884Z,99831.44
2022-08-22T20:40:56.058Z,99825.22
2022-08-22T20:44:17.284Z,99827.78
2022-08-22T20:47:32.316Z,99833.84
2022-08-22T20:50:44.687Z,99833.13
2022-08-22T20:53:53.081Z,99821.03
2022-08-22T20:57:02.809Z,99818.56
2022-08-22T21:00:11.908Z,99821.47
2022-08-22T21:03:42.963Z,99819.63
2022-08-22T21:06:45.817Z,99815.16
2022-08-22T21:10:22.840Z,99820.34
2022-08-22T21:13:29.222Z,99823.75
2022-08-22T21:16:33.577Z,99824.28
2022-08-22T21:19:35.853Z,99833.28
2022-08-22T21:22:38.454Z,99832.41
2022-08-22T21:25:56.675Z,99834.37
2022-08-22T21:29:05.121Z,99831.59
2022-08-22T21:32:33.161Z,99830.63
2022-08-22T21:35:38.202Z,99826.28
2022-08-22T21:38:48.567Z,99834.59
2022-08-22T21:42:02.074Z,99840.34
2022-08-22T21:45:10.604Z,99831.59
2022-08-22T21:48:44.473Z,99839.56
2022-08-22T21:51:50.876Z,99847.16
2022-08-22T21:55:34.401Z,99848.53
2022-08-22T21:58:41.005Z,99862.53
2022-08-22T22:01:48.608Z,99859.03
2022-08-22T22:05:00.504Z,99861.84
2022-08-22T22:08:09.429Z,99857.84
2022-08-22T22:11:27.585Z,99867.97
2022-08-22T22:14:31.820Z,99866.06
2022-08-22T22:17:39.826Z,99870.41
2022-08-22T22:24:28.269Z,99876.91
2022-08-22T22:27:37.226Z,99867.88
2022-08-22T22:30:53.240Z,99871.44
2022-08-22T22:33:55.351Z,99870.75
2022-08-22T22:36:57.403Z,99863.75
2022-08-22T22:40:07.296Z,99861.84
2022-08-22T22:43:11.624Z,99862.59
2022-08-22T22:46:14.280Z,99854.72
2022-08-22T22:49:16.412Z,99858.06
2022-08-22T22:52:18.307Z,99867.03
2022-08-22T22:55:24.308Z,99877.75
2022-08-22T22:58:27.915Z,99869.91
2022-08-22T23:01:34.951Z,99872.66
2022-08-22T23:04:38.984Z,99867.56
2022-08-22T23:07:41.833Z,99864.97
2022-08-22T23:10:43.578Z,99871.94
2022-08-22T23:13:46.701Z,99875.38
2022-08-22T23:16:48.353Z,99873.78
2022-08-22T23:19:51.462Z,99882.66
2022-08-22T23:22:53.430Z,99891.00
2022-08-22T23:25:55.344Z,99892.66
2022-08-22T23:29:00.577Z,99888.94
2022-08-22T23:32:04.743Z,99893.87
2022-08-22T23:35:07.089Z,99895.59
2022-08-22T23:38:10.434Z,99900.75
2022-08-22T23:41:17.769Z,99899.00
2022-08-22T23:44:23.812Z,99900.47
2022-08-22T23:47:26.730Z,99897.03
2022-08-22T23:50:28.668Z,99894.16
2022-08-22T23:53:31.159Z,99896.69
2022-08-22T23:56:40.267Z,99901.06
2022-08-22T23:59:47.856Z,99898.34
